Time;durP1;ratioP1;P1;durP2;ratioP2;P2;SDS_P1;SDS_P2;PMS_P1;PMS_P2;Temp;Humidity;BMP_temperature;BMP_pressure;BME280_temperature;BME280_humidity;BME280_pressure;Samples;Min_cycle;Max_cycle;Signal;HPM_P1;HPM_P2
2021/06/28 00:01:10;;;;;;;11.02;5.40;;;22.20;98.90;;;22.77;58.11;101158.53;5004636;28;20579;-70
2021/06/28 00:03:37;;;;;;;11.52;4.80;;;22.10;98.90;;;22.77;58.00;101166.53;5000640;28;20634;-70
2021/06/28 00:06:05;;;;;;;9.77;4.65;;;22.10;99.00;;;22.76;58.18;101164.81;4986162;28;20269;-71
2021/06/28 00:08:33;;;;;;;9.85;4.50;;;22.10;99.10;;;22.71;58.02;101163.50;4976631;28;20241;-70
2021/06/28 00:11:00;;;;;;;10.50;4.90;;;22.10;99.20;;;22.68;58.24;101163.75;4975850;28;20194;-70
2021/06/28 00:13:26;;;;;;;13.70;5.28;;;22.00;99.40;;;22.65;58.76;101164.00;4992609;28;20207;-70
2021/06/28 00:15:53;;;;;;;9.63;4.53;;;22.00;99.50;;;22.64;58.60;101160.47;4975901;28;20198;-69
2021/06/28 00:18:21;;;;;;;10.07;4.57;;;22.00;99.60;;;22.62;58.94;101158.91;4981433;28;20227;-70
2021/06/28 00:20:48;;;;;;;11.07;4.38;;;22.00;99.70;;;22.59;58.96;101160.00;4975102;28;20204;-71
2021/06/28 00:23:17;;;;;;;10.50;4.78;;;22.00;99.90;;;22.56;58.87;101159.38;4990073;28;20699;-71
2021/06/28 00:25:45;;;;;;;12.35;5.10;;;21.90;99.90;;;22.52;59.39;101160.59;4991372;28;20608;-71
2021/06/28 00:28:14;;;;;;;11.45;4.95;;;21.90;99.90;;;22.48;59.50;101164.47;4996556;28;20218;-71
2021/06/28 00:30:44;;;;;;;12.27;4.78;;;21.90;99.90;;;22.44;59.60;101165.69;5009501;28;20186;-71
2021/06/28 00:33:15;;;;;;;10.43;4.75;;;21.80;99.90;;;22.42;59.69;101164.97;4986556;28;20188;-70
2021/06/28 00:35:44;;;;;;;11.00;5.00;;;21.80;99.90;;;22.40;59.54;101162.41;4990544;28;20201;-70
2021/06/28 00:38:12;;;;;;;9.82;4.60;;;21.80;99.90;;;22.40;59.66;101160.56;4968968;28;20215;-69
2021/06/28 00:40:40;;;;;;;11.38;4.93;;;21.70;99.90;;;22.39;59.90;101152.69;4993990;28;20203;-70
2021/06/28 00:43:10;;;;;;;10.88;4.40;;;21.80;99.90;;;22.37;60.00;101155.50;4990962;28;20202;-70
2021/06/28 00:45:39;;;;;;;10.60;4.70;;;21.80;99.90;;;22.37;59.70;101158.16;4976554;28;20215;-70
2021/06/28 00:48:10;;;;;;;12.52;5.30;;;21.70;99.90;;;22.35;59.99;101154.75;4966342;28;20700;-71
2021/06/28 00:50:41;;;;;;;11.52;4.50;;;21.70;99.90;;;22.33;60.19;101158.53;4976176;28;20225;-69
2021/06/28 00:53:12;;;;;;;10.52;4.50;;;21.70;99.90;;;22.30;60.38;101162.28;4971975;28;20569;-70
2021/06/28 00:55:42;;;;;;;10.48;4.65;;;21.70;99.90;;;22.27;60.45;101159.84;4993288;28;20195;-71
2021/06/28 00:58:11;;;;;;;12.93;4.85;;;21.60;99.90;;;22.24;60.50;101165.44;4965112;28;20727;-71
2021/06/28 01:00:39;;;;;;;10.85;4.97;;;21.60;99.90;;;22.22;60.50;101156.69;4970575;28;20210;-70
2021/06/28 01:03:07;;;;;;;10.02;4.57;;;21.60;99.90;;;22.20;60.54;101163.16;4985387;28;20194;-71
2021/06/28 01:05:37;;;;;;;11.07;4.80;;;21.60;99.90;;;22.22;60.59;101166.53;4975906;28;20218;-71
2021/06/28 01:08:06;;;;;;;9.85;4.63;;;21.60;99.90;;;22.19;60.25;101167.63;4985944;28;20226;-71
2021/06/28 01:10:37;;;;;;;9.98;4.47;;;21.50;99.90;;;22.16;60.99;101162.53;5000443;28;20195;-70
2021/06/28 01:13:04;;;;;;;10.18;4.57;;;21.50;99.90;;;22.15;60.62;101165.31;4992485;28;20206;-71
2021/06/28 01:15:32;;;;;;;10.20;4.90;;;21.50;99.90;;;22.13;60.71;101162.78;5000563;28;20572;-71
2021/06/28 01:18:01;;;;;;;9.88;4.93;;;21.50;99.90;;;22.09;60.74;101161.31;4977416;28;20696;-71
2021/06/28 01:20:30;;;;;;;10.05;4.22;;;21.40;99.90;;;22.07;60.82;101165.91;4961106;28;20218;-70
2021/06/28 01:23:08;;;;;;;12.13;4.88;;;21.40;99.90;;;22.07;61.11;101160.56;5000396;28;20668;-69
2021/06/28 01:25:35;;;;;;;10.70;4.60;;;21.40;99.90;;;22.05;61.10;101165.16;4963552;28;20214;-70
2021/06/28 01:28:02;;;;;;;9.80;4.50;;;21.40;99.90;;;22.01;61.34;101163.72;4983763;28;20225;-69
2021/06/28 01:30:30;;;;;;;10.93;4.82;;;21.40;99.90;;;22.00;61.12;101156.69;4971650;28;20203;-72
2021/06/28 01:32:58;;;;;;;10.48;4.60;;;21.30;99.90;;;21.99;61.25;101160.31;4981271;28;20194;-71
2021/06/28 01:35:26;;;;;;;13.18;4.80;;;21.30;99.90;;;21.97;61.33;101158.75;4980969;28;20209;-70
2021/06/28 01:37:53;;;;;;;11.27;4.53;;;21.30;99.90;;;21.94;61.34;101162.50;4981803;28;20221;-70
2021/06/28 01:40:21;;;;;;;9.90;4.55;;;21.30;99.90;;;21.92;61.61;101164.44;4965956;28;20288;-69
2021/06/28 01:42:49;;;;;;;10.98;4.40;;;21.30;99.90;;;21.91;61.56;101167.22;4982103;28;20202;-69
2021/06/28 01:45:21;;;;;;;12.75;4.55;;;21.30;99.90;;;21.92;61.32;101167.09;4981607;28;20199;-71
2021/06/28 01:47:49;;;;;;;9.02;4.10;;;21.30;99.90;;;21.90;61.71;101166.34;4970282;28;20313;-70
2021/06/28 01:50:19;;;;;;;9.40;4.60;;;21.20;99.90;;;21.87;61.65;101158.59;4982052;28;20199;-70
2021/06/28 01:52:46;;;;;;;11.05;5.18;;;21.30;99.90;;;21.85;61.43;101155.19;4997246;28;20202;-70
2021/06/28 01:55:21;;;;;;;13.85;4.90;;;21.20;99.90;;;21.84;61.78;101161.50;4981965;28;21098;-69
2021/06/28 01:57:52;;;;;;;9.48;4.57;;;21.20;99.90;;;21.82;61.77;101163.44;4982319;28;20206;-70
2021/06/28 02:00:22;;;;;;;10.10;5.10;;;21.20;99.90;;;21.81;61.64;101167.09;4983613;28;20207;-70
2021/06/28 02:03:08;;;;;;;10.68;4.50;;;21.20;99.90;;;21.80;61.38;101170.69;4979635;28;20205;-71
2021/06/28 02:05:39;;;;;;;9.90;4.45;;;21.20;99.90;;;21.76;61.67;101166.56;4982871;28;20688;-70
2021/06/28 02:08:07;;;;;;;10.43;4.97;;;21.10;99.90;;;21.75;61.93;101161.34;4985385;28;20225;-71
2021/06/28 02:10:39;;;;;;;9.48;4.60;;;21.10;99.90;;;21.72;61.83;101162.41;5007903;28;20217;-71
2021/06/28 02:13:06;;;;;;;10.63;4.25;;;21.10;99.90;;;21.70;61.99;101163.50;4984885;28;20705;-71
2021/06/28 02:15:33;;;;;;;9.45;4.93;;;21.00;99.90;;;21.68;61.91;101166.31;4981934;28;20286;-71
2021/06/28 02:18:02;;;;;;;9.77;4.47;;;21.10;99.90;;;21.66;62.29;101152.22;4960741;28;20221;-72
2021/06/28 02:20:30;;;;;;;9.57;4.57;;;21.00;99.90;;;21.62;62.39;101153.44;4980558;28;20578;-70
2021/06/28 02:23:22;;;;;;;9.07;4.15;;;21.00;99.90;;;21.61;62.54;101166.88;4962383;28;20191;-69
2021/06/28 02:25:54;;;;;;;9.77;4.53;;;21.00;99.90;;;21.58;62.57;101157.31;4961001;28;20206;-70
2021/06/28 02:28:21;;;;;;;11.68;4.65;;;20.90;99.90;;;21.57;62.89;101155.59;4987149;28;20218;-68
2021/06/28 02:30:49;;;;;;;10.13;5.00;;;21.00;99.90;;;21.57;62.95;101157.44;4981951;28;20199;-70
2021/06/28 02:33:16;;;;;;;9.73;4.97;;;20.90;99.90;;;21.56;62.89;101153.91;4982064;28;20776;-69
2021/06/28 02:35:43;;;;;;;10.60;4.57;;;20.90;99.90;;;21.55;62.70;101151.38;4980227;28;20205;-70
2021/06/28 02:38:10;;;;;;;9.45;4.55;;;20.90;99.90;;;21.56;62.91;101150.38;4967669;28;20215;-70
2021/06/28 02:40:37;;;;;;;12.05;4.43;;;20.90;99.90;;;21.56;63.08;101153.91;4981072;28;20670;-70
2021/06/28 02:43:05;;;;;;;10.55;4.82;;;20.90;99.90;;;21.56;63.01;101155.72;4983195;28;20190;-70
2021/06/28 02:45:33;;;;;;;10.63;4.75;;;20.90;99.90;;;21.51;63.11;101145.41;4965348;28;20199;-70
2021/06/28 02:48:00;;;;;;;10.95;4.85;;;20.90;99.90;;;21.48;62.80;101142.13;4975735;28;20218;-69
2021/06/28 02:50:26;;;;;;;11.60;5.20;;;20.80;99.90;;;21.44;63.28;101141.50;4980931;28;20206;-71
2021/06/28 02:52:53;;;;;;;11.13;5.32;;;20.80;99.90;;;21.43;63.20;101133.63;4986458;28;20194;-70
2021/06/28 02:55:20;;;;;;;11.43;5.00;;;20.80;99.90;;;21.43;63.11;101134.50;4963985;28;20207;-71
2021/06/28 02:57:47;;;;;;;10.07;4.70;;;20.80;99.90;;;21.43;63.01;101126.50;4981411;28;20214;-71
2021/06/28 03:00:18;;;;;;;11.07;4.63;;;20.80;99.90;;;21.42;62.93;101126.63;4981913;28;20206;-69
2021/06/28 03:02:45;;;;;;;9.57;4.38;;;20.80;99.90;;;21.40;63.29;101124.03;4982183;28;20586;-70
2021/06/28 03:05:13;;;;;;;10.05;4.80;;;20.80;99.90;;;21.38;63.27;101120.66;4982940;28;20210;-71
2021/06/28 03:07:41;;;;;;;11.05;4.80;;;20.70;99.90;;;21.40;63.18;101120.56;4992011;28;20704;-69
2021/06/28 03:10:11;;;;;;;11.35;4.82;;;20.80;99.90;;;21.38;63.36;101126.00;4993075;28;20195;-68
2021/06/28 03:12:39;;;;;;;10.55;4.75;;;20.70;99.90;;;21.36;62.87;101117.28;4989592;28;20218;-69
2021/06/28 03:15:09;;;;;;;10.02;4.70;;;20.70;99.90;;;21.38;63.00;101127.81;4982712;28;20646;-71
2021/06/28 03:17:38;;;;;;;108.80;58.97;;;20.70;99.90;;;21.36;62.83;101124.41;5002234;28;20601;-70
2021/06/28 03:20:08;;;;;;;12.57;6.35;;;20.70;99.90;;;21.36;63.02;101130.59;4985007;28;20193;-70
2021/06/28 03:22:35;;;;;;;12.40;5.80;;;20.70;99.90;;;;;;4986960;28;20229;-71
2021/06/28 03:25:02;;;;;;;12.30;4.90;;;20.70;99.90;;;21.32;63.02;101131.78;4982356;28;20198;-70
2021/06/28 03:27:28;;;;;;;11.23;5.00;;;20.70;99.90;;;21.31;63.05;101132.75;4983101;28;20396;-70
2021/06/28 03:29:55;;;;;;;10.05;4.72;;;20.70;99.90;;;21.31;63.10;101135.41;4984662;28;20577;-71
2021/06/28 03:32:22;;;;;;;11.95;5.05;;;20.70;99.90;;;21.30;62.92;101146.19;4986447;28;20545;-71
2021/06/28 03:34:51;;;;;;;12.02;4.72;;;20.70;99.90;;;21.32;63.37;101137.09;4982249;28;20206;-71
2021/06/28 03:37:17;;;;;;;12.70;4.97;;;20.70;99.90;;;21.35;63.16;101141.38;4982268;28;20234;-69
2021/06/28 03:39:44;;;;;;;10.65;4.97;;;20.70;99.90;;;21.38;63.07;101136.66;4968223;28;20198;-71
2021/06/28 03:42:11;;;;;;;10.23;5.00;;;20.80;99.90;;;21.38;62.82;101144.66;4973173;28;20716;-71
2021/06/28 03:44:40;;;;;;;11.20;5.25;;;20.70;99.90;;;21.36;62.64;101138.59;4966438;28;20665;-70
2021/06/28 03:47:07;;;;;;;11.82;5.18;;;20.70;99.90;;;21.39;63.17;101146.34;4991053;28;20245;-70
2021/06/28 03:49:34;;;;;;;10.18;5.05;;;20.80;99.90;;;21.40;63.08;101140.03;5002563;28;20218;-70
2021/06/28 03:52:02;;;;;;;10.73;5.00;;;20.80;99.90;;;21.44;63.03;101140.66;4987725;28;20191;-71
2021/06/28 03:54:29;;;;;;;10.98;5.50;;;20.80;99.90;;;21.45;62.85;101137.88;4986255;28;20661;-69
2021/06/28 03:56:56;;;;;;;12.60;5.20;;;20.80;99.90;;;21.48;63.18;101136.81;4994123;28;20687;-71
2021/06/28 03:59:23;;;;;;;13.77;5.63;;;20.80;99.90;;;21.52;63.19;101147.09;4994604;28;20575;-69
2021/06/28 04:01:50;;;;;;;13.32;5.15;;;20.90;99.90;;;21.54;62.73;101149.63;4994829;28;20684;-70
2021/06/28 04:04:17;;;;;;;11.45;5.32;;;20.90;99.90;;;21.57;62.90;101146.78;4986297;28;20198;-70
2021/06/28 04:06:44;;;;;;;12.30;5.13;;;21.00;99.90;;;21.60;62.21;101154.53;4972675;28;20282;-69
2021/06/28 04:09:12;;;;;;;11.38;4.85;;;21.00;99.90;;;21.63;62.32;101147.16;4966322;28;20699;-70
2021/06/28 04:11:38;;;;;;;13.07;5.50;;;21.00;99.90;;;21.68;61.96;101152.97;4988529;28;20202;-71
2021/06/28 04:14:05;;;;;;;11.32;5.28;;;21.00;99.90;;;21.72;61.83;101153.59;4982695;28;20203;-71
2021/06/28 04:16:32;;;;;;;10.95;4.68;;;21.10;99.90;;;21.74;61.98;101157.81;4983584;28;20203;-70
2021/06/28 04:18:59;;;;;;;9.68;4.97;;;21.10;99.90;;;21.77;62.44;101154.94;4983074;28;20195;-69
2021/06/28 04:21:26;;;;;;;12.27;5.40;;;21.20;99.90;;;21.79;61.92;101147.69;4982699;28;20205;-71
2021/06/28 04:23:52;;;;;;;12.68;5.32;;;21.20;99.90;;;21.80;62.16;101160.03;4984230;28;20191;-70
2021/06/28 04:26:20;;;;;;;11.32;5.20;;;21.20;99.90;;;21.84;62.17;101164.19;4980192;28;20214;-69
2021/06/28 04:28:47;;;;;;;9.90;4.85;;;21.30;99.90;;;21.88;61.69;101160.31;4985013;28;20607;-71
2021/06/28 04:31:14;;;;;;;11.10;5.07;;;21.30;99.90;;;21.94;61.67;101165.16;4986148;28;20821;-72
2021/06/28 04:33:41;;;;;;;11.18;4.57;;;21.30;99.90;;;21.96;61.21;101165.91;5003399;28;20199;-71
2021/06/28 04:36:07;;;;;;;11.10;4.90;;;21.40;99.90;;;22.00;61.32;101162.00;4981841;28;20211;-71
2021/06/28 04:38:34;;;;;;;11.30;5.30;;;21.40;99.90;;;22.00;61.19;101162.00;4983326;28;20593;-70
2021/06/28 04:41:01;;;;;;;11.05;5.25;;;21.40;99.90;;;21.95;61.30;101158.84;4997564;28;20195;-69
2021/06/28 04:43:29;;;;;;;13.27;4.85;;;21.40;99.90;;;21.93;61.41;101166.16;4984371;28;20283;-67
2021/06/28 04:45:56;;;;;;;13.52;5.20;;;21.40;99.90;;;21.92;61.29;101164.44;4984502;28;20191;-68
2021/06/28 04:48:23;;;;;;;11.13;5.32;;;21.40;99.90;;;21.94;61.31;101167.84;4987857;28;20218;-69
2021/06/28 04:50:50;;;;;;;12.82;5.32;;;21.40;99.90;;;21.99;61.07;101160.31;4984010;28;20195;-70
2021/06/28 04:53:17;;;;;;;12.13;5.45;;;21.40;99.90;;;22.03;61.08;101164.47;4968374;28;20223;-72
2021/06/28 04:55:43;;;;;;;10.80;5.38;;;21.50;99.90;;;22.07;60.96;101165.09;4980375;28;20253;-69
2021/06/28 04:58:10;;;;;;;11.35;5.35;;;21.50;99.90;;;22.10;60.76;101163.00;4983748;28;20215;-70
2021/06/28 05:00:38;;;;;;;10.55;5.00;;;21.50;99.90;;;22.15;60.98;101163.47;4983670;28;20210;-70
2021/06/28 05:03:06;;;;;;;12.02;5.75;;;21.60;99.90;;;22.18;60.29;101165.94;4985854;28;20210;-69
2021/06/28 05:05:32;;;;;;;12.18;5.35;;;21.60;99.90;;;22.20;60.03;101166.63;4980600;28;20579;-71
2021/06/28 05:07:59;;;;;;;11.32;4.60;;;21.60;99.90;;;22.24;60.08;101162.78;4965143;28;20230;-70
2021/06/28 05:10:26;;;;;;;10.77;4.93;;;21.70;99.90;;;22.30;60.01;101170.28;4984434;28;20218;-71
2021/06/28 05:12:52;;;;;;;12.35;4.68;;;21.80;99.90;;;22.36;60.17;101158.28;4982163;28;20197;-70
2021/06/28 05:15:19;;;;;;;10.73;4.90;;;21.90;99.90;;;22.42;59.38;101163.16;4982098;28;20191;-70
2021/06/28 05:17:47;;;;;;;11.27;4.45;;;21.90;99.90;;;22.49;59.20;101163.50;4983265;28;20685;-71
2021/06/28 05:20:14;;;;;;;11.07;4.63;;;22.00;99.90;;;22.54;59.26;101148.00;4981988;28;20198;-69
2021/06/28 05:22:43;;;;;;;9.70;4.03;;;22.10;99.90;;;22.59;58.78;101154.66;4967408;28;20213;-71
2021/06/28 05:25:13;;;;;;;10.82;4.60;;;22.10;99.90;;;22.65;58.01;101153.31;4983716;28;20210;-70
2021/06/28 05:27:39;;;;;;;9.05;4.20;;;22.20;99.90;;;22.71;58.25;101145.66;4981861;28;20233;-70
2021/06/28 05:30:10;;;;;;;10.05;4.32;;;22.30;99.90;;;22.77;58.11;101142.50;4982259;28;20187;-70
2021/06/28 05:32:38;;;;;;;10.20;4.43;;;22.30;99.90;;;22.83;57.59;101141.16;4981252;28;20278;-71
2021/06/28 05:35:09;;;;;;;11.50;4.75;;;22.40;99.90;;;22.87;57.38;101121.25;4959722;28;20194;-71
2021/06/28 05:37:36;;;;;;;8.65;4.05;;;22.50;99.90;;;22.92;57.48;101132.41;4985532;28;20222;-70
2021/06/28 05:40:05;;;;;;;9.35;4.45;;;22.50;99.90;;;22.99;57.74;101136.25;5003253;28;20207;-71
2021/06/28 05:42:32;;;;;;;10.18;4.70;;;22.60;99.90;;;23.04;57.02;101132.22;4984599;28;20685;-71
2021/06/28 05:44:59;;;;;;;11.27;4.55;;;22.60;99.90;;;23.08;57.49;101141.69;4978516;28;20203;-72
2021/06/28 05:47:26;;;;;;;9.20;4.40;;;22.70;99.90;;;23.11;57.18;101135.22;4983056;28;20230;-72
2021/06/28 05:49:52;;;;;;;11.02;5.22;;;22.70;99.90;;;23.11;57.27;101136.09;4969604;28;20183;-72
2021/06/28 05:52:21;;;;;;;10.90;4.80;;;22.70;99.90;;;23.13;57.15;101130.59;4983276;28;20190;-72
2021/06/28 05:54:49;;;;;;;9.95;4.68;;;22.70;99.90;;;23.15;57.36;101136.69;4982485;28;20736;-72
2021/06/28 05:57:18;;;;;;;11.88;4.97;;;22.80;99.90;;;23.18;57.14;101137.28;4979791;28;20210;-70
2021/06/28 05:59:45;;;;;;;12.07;5.50;;;22.80;99.90;;;23.20;56.91;101135.34;4983833;28;20209;-73
2021/06/28 06:02:12;;;;;;;10.38;4.93;;;22.80;99.90;;;23.25;56.84;101142.94;4988758;28;20721;-73
2021/06/28 06:04:39;;;;;;;12.30;5.97;;;22.90;99.90;;;23.29;56.67;101142.59;4994139;28;20194;-71
2021/06/28 06:07:05;;;;;;;11.25;5.00;;;22.90;99.90;;;23.35;56.81;101149.25;4979618;28;20215;-70
2021/06/28 06:09:34;;;;;;;11.02;5.38;;;23.00;99.90;;;23.41;56.39;101144.25;4972796;28;20209;-68
2021/06/28 06:12:00;;;;;;;11.45;5.18;;;23.10;99.90;;;23.47;55.95;101148.25;4992763;28;20558;-68
2021/06/28 06:14:27;;;;;;;10.85;5.18;;;23.10;99.90;;;23.52;55.71;101151.38;4991420;28;20183;-66
2021/06/28 06:16:54;;;;;;;12.15;4.78;;;23.20;99.90;;;23.56;55.66;101150.16;4991032;28;20709;-67
2021/06/28 06:19:21;;;;;;;12.88;5.00;;;23.30;99.90;;;23.60;55.60;101148.88;4992445;28;20183;-65
2021/06/28 06:21:48;;;;;;;11.40;4.85;;;23.30;99.90;;;23.63;55.23;101145.94;5001347;28;20195;-65
2021/06/28 06:24:16;;;;;;;11.85;5.28;;;23.30;99.90;;;23.68;55.28;101146.41;4994250;28;20204;-66
2021/06/28 06:26:44;;;;;;;12.82;5.38;;;23.40;99.90;;;23.73;55.35;101146.88;4993058;28;20194;-67
2021/06/28 06:29:10;;;;;;;13.75;5.70;;;23.40;99.90;;;23.78;55.40;101147.31;4992260;28;20189;-68
2021/06/28 06:31:37;;;;;;;12.40;5.25;;;23.50;99.90;;;23.84;55.55;101145.97;4973116;28;20201;-68
2021/06/28 06:34:04;;;;;;;15.75;5.90;;;23.60;99.90;;;23.89;54.86;101152.63;4985346;28;20202;-66
2021/06/28 06:36:31;;;;;;;16.35;5.90;;;23.60;99.90;;;23.94;55.12;101154.88;4982244;28;20191;-66
2021/06/28 06:38:58;;;;;;;12.10;5.30;;;23.70;99.90;;;24.02;55.23;101155.09;4982735;28;20221;-67
2021/06/28 06:41:25;;;;;;;16.60;5.47;;;23.80;99.90;;;24.07;54.76;101152.88;4992222;28;20703;-67
2021/06/28 06:43:53;;;;;;;14.50;5.32;;;23.90;99.90;;;24.15;54.51;101153.03;4992205;28;20199;-67
2021/06/28 06:46:19;;;;;;;16.48;5.57;;;24.00;99.90;;;24.20;54.53;101156.16;4975600;28;20677;-67
2021/06/28 06:48:46;;;;;;;13.43;4.80;;;24.00;99.90;;;24.26;54.45;101159.19;4995587;28;20222;-67
2021/06/28 06:51:13;;;;;;;10.98;5.75;;;24.10;99.90;;;24.32;54.29;101165.81;4994673;28;20665;-68
2021/06/28 06:53:41;;;;;;;12.65;5.85;;;24.20;99.90;;;24.37;54.14;101161.75;4996098;28;20245;-68
2021/06/28 06:56:07;;;;;;;11.05;5.70;;;24.30;99.90;;;24.43;54.22;101163.88;4978693;28;20199;-71
2021/06/28 06:58:36;;;;;;;11.60;5.32;;;24.40;99.90;;;24.52;54.46;101160.41;4994940;28;20285;-69
2021/06/28 07:01:09;;;;;;;10.95;5.80;;;24.50;99.90;;;24.60;53.76;101163.25;4995846;28;20195;-70
2021/06/28 07:03:36;;;;;;;13.23;5.82;;;24.60;99.90;;;24.68;53.95;101159.94;4977428;28;20217;-70
2021/06/28 07:06:02;;;;;;;12.00;6.18;;;24.60;99.90;;;24.77;53.84;101164.44;4986054;28;20199;-72
2021/06/28 07:08:29;;;;;;;13.25;6.07;;;24.80;99.90;;;24.87;53.44;101159.97;4994476;28;20241;-70
2021/06/28 07:10:56;;;;;;;10.73;5.82;;;24.90;99.90;;;24.98;53.27;101169.72;4970260;28;20213;-71
2021/06/28 07:13:23;;;;;;;12.57;6.50;;;25.00;99.90;;;25.09;52.97;101161.53;4977304;28;20191;-70
2021/06/28 07:15:50;;;;;;;12.15;6.18;;;25.30;99.90;;;25.21;52.56;101169.34;4995512;28;20195;-70
2021/06/28 07:18:18;;;;;;;12.70;5.93;;;25.90;99.70;;;25.35;52.46;101173.44;4995713;28;20601;-72
2021/06/28 07:20:44;;;;;;;13.63;5.68;;;26.50;98.90;;;25.48;52.33;101177.56;4995756;28;20722;-70
2021/06/28 07:23:11;;;;;;;12.15;5.78;;;27.00;98.20;;;25.61;52.05;101177.25;4977333;28;20213;-71
2021/06/28 07:25:38;;;;;;;13.13;5.70;;;27.50;97.20;;;25.71;51.86;101184.31;4995097;28;20665;-69
2021/06/28 07:28:06;;;;;;;12.00;5.10;;;27.70;96.90;;;25.82;51.57;101177.97;4968672;28;20213;-71
2021/06/28 07:30:33;;;;;;;11.23;5.20;;;27.90;96.10;;;25.87;51.06;101173.81;4995660;28;20186;-70
2021/06/28 07:33:00;;;;;;;14.23;5.32;;;27.70;95.60;;;25.91;50.87;101169.03;4995157;28;20572;-70
2021/06/28 07:35:28;;;;;;;10.55;5.72;;;27.50;95.60;;;25.96;50.88;101161.38;4995433;28;20544;-70
2021/06/28 07:37:55;;;;;;;12.35;5.40;;;27.20;95.70;;;26.02;50.24;101160.84;5001014;28;20314;-70
2021/06/28 07:40:22;;;;;;;14.18;6.95;;;27.00;96.00;;;26.10;50.37;101165.47;4976846;28;20201;-72
2021/06/28 07:42:51;;;;;;;16.42;6.45;;;26.90;96.00;;;26.18;50.45;101168.28;4976717;28;20225;-71
2021/06/28 07:45:20;;;;;;;10.50;5.68;;;26.80;96.20;;;26.23;49.63;101161.47;4995632;28;20206;-72
2021/06/28 07:47:48;;;;;;;10.45;5.40;;;26.70;95.80;;;26.26;49.61;101155.81;4994295;28;20210;-74
2021/06/28 07:50:17;;;;;;;12.13;5.15;;;26.70;95.70;;;26.31;48.98;101158.91;4993991;28;20656;-71
2021/06/28 07:52:45;;;;;;;11.23;5.35;;;26.70;95.50;;;26.38;49.01;101154.63;4985512;28;20695;-72
2021/06/28 07:55:14;;;;;;;10.75;4.65;;;26.80;95.20;;;26.46;47.86;101151.22;4987501;28;20197;-72
2021/06/28 07:57:41;;;;;;;11.38;5.55;;;26.80;94.30;;;26.56;47.36;101155.53;4993653;28;20890;-73
2021/06/28 08:00:11;;;;;;;11.05;6.03;;;26.90;94.00;;;26.63;47.82;101153.09;4992424;28;20683;-72
2021/06/28 08:02:38;;;;;;;16.17;5.43;;;27.00;94.10;;;26.72;47.25;101150.41;4994638;28;20194;-74
2021/06/28 08:05:06;;;;;;;12.73;5.43;;;27.10;93.80;;;26.80;46.98;101149.63;4989213;28;20194;-70
2021/06/28 08:07:34;;;;;;;12.80;6.50;;;27.20;93.70;;;26.87;46.54;101153.41;4975003;28;20221;-71
2021/06/28 08:10:05;;;;;;;10.15;4.70;;;27.30;93.00;;;26.93;45.57;101148.28;4977040;28;20194;-71
2021/06/28 08:12:32;;;;;;;23.38;6.63;;;27.30;92.40;;;27.01;45.57;101147.53;4975194;28;20205;-71
2021/06/28 08:14:59;;;;;;;8.68;4.15;;;27.40;92.20;;;27.10;44.62;101143.91;4993704;28;20202;-71
2021/06/28 08:17:26;;;;;;;9.30;4.10;;;27.50;91.30;;;27.18;44.42;101146.69;4975747;28;20210;-72
2021/06/28 08:19:53;;;;;;;10.52;4.45;;;27.50;91.20;;;27.27;44.48;101144.91;4991877;28;20205;-70
2021/06/28 08:22:21;;;;;;;10.88;5.03;;;27.60;91.30;;;27.33;44.61;101149.72;4975750;28;20198;-71
2021/06/28 08:24:47;;;;;;;11.25;4.47;;;27.70;91.20;;;27.38;44.54;101142.03;4976423;28;20569;-72
2021/06/28 08:27:16;;;;;;;9.40;4.75;;;27.80;90.60;;;27.42;44.49;101146.09;4988861;28;20550;-71
2021/06/28 08:29:44;;;;;;;10.13;4.10;;;27.90;90.60;;;27.44;44.34;101146.78;4989559;28;20197;-71
2021/06/28 08:32:11;;;;;;;13.68;4.28;;;27.90;90.10;;;27.48;43.71;101151.69;4971172;28;20201;-71
2021/06/28 08:34:38;;;;;;;11.65;4.90;;;28.00;90.20;;;27.54;43.60;101152.94;4977363;28;22032;-72
2021/06/28 08:37:06;;;;;;;9.55;3.60;;;28.00;89.80;;;27.57;43.36;101152.59;4991925;28;20676;-72
2021/06/28 08:39:33;;;;;;;10.48;3.60;;;28.00;89.20;;;27.59;42.76;101148.78;4988422;28;20218;-72
2021/06/28 08:42:07;;;;;;;8.63;3.60;;;28.00;88.80;;;27.64;42.76;101154.53;4988210;28;20202;-71
2021/06/28 08:44:38;;;;;;;7.57;3.35;;;28.10;88.10;;;27.69;42.59;101151.38;4977261;28;20202;-72
2021/06/28 08:47:05;;;;;;;11.02;4.60;;;28.20;88.00;;;27.76;42.74;101147.06;4976066;28;20226;-71
2021/06/28 08:49:34;;;;;;;9.10;4.00;;;28.30;87.60;;;27.84;42.61;101144.41;4989321;28;20217;-73
2021/06/28 08:52:02;;;;;;;10.38;4.15;;;28.30;87.40;;;27.90;42.70;101143.78;4977318;28;20208;-71
2021/06/28 08:54:28;;;;;;;9.00;4.15;;;28.40;87.10;;;27.95;42.65;101141.47;4995051;28;20588;-72
2021/06/28 08:56:56;;;;;;;10.57;4.20;;;28.50;86.90;;;28.03;41.94;101145.06;5010955;28;20218;-72
2021/06/28 08:59:24;;;;;;;10.43;4.28;;;28.50;86.40;;;27.97;42.16;101145.72;4995918;28;20225;-71
2021/06/28 09:01:53;;;;;;;10.57;4.10;;;28.50;86.10;;;27.83;42.29;101143.56;4975198;28;20213;-72
2021/06/28 09:04:21;;;;;;;13.93;4.05;;;28.30;85.70;;;27.74;42.06;101141.81;4994920;28;20190;-73
2021/06/28 09:06:48;;;;;;;9.20;4.72;;;28.20;85.70;;;27.74;42.25;101136.44;4993430;28;20249;-72
2021/06/28 09:09:18;;;;;;;9.77;4.63;;;28.20;86.30;;;27.82;42.30;101143.72;4996507;28;20209;-71
2021/06/28 09:11:49;;;;;;;10.68;5.22;;;28.30;85.80;;;27.97;42.03;101150.25;4995725;28;20660;-71
2021/06/28 09:14:18;;;;;;;16.35;8.70;;;28.40;85.70;;;28.15;42.03;101145.63;4978328;28;20293;-72
2021/06/28 09:16:47;;;;;;;10.95;4.97;;;28.70;85.60;;;28.28;41.76;101138.81;4993323;28;20198;-71
2021/06/28 09:19:18;;;;;;;11.68;4.60;;;28.80;84.60;;;28.36;41.11;101135.31;4986049;28;20671;-73
2021/06/28 09:21:50;;;;;;;11.35;4.10;;;28.90;83.40;;;28.41;40.57;101133.00;4985804;28;20651;-70
2021/06/28 09:24:30;;;;;;;8.75;3.65;;;28.90;83.00;;;28.49;40.61;101145.63;4970246;28;20723;-72
2021/06/28 09:27:23;;;;;;;7.50;3.60;;;29.00;82.40;;;28.52;40.23;101140.81;4992027;28;20222;-71
2021/06/28 09:29:55;;;;;;;8.70;3.67;;;29.00;82.10;;;28.55;40.43;101140.50;4994206;28;20704;-71
2021/06/28 09:32:23;;;;;;;9.85;3.90;;;29.00;81.70;;;28.64;40.13;101141.34;4980182;28;20221;-72
2021/06/28 09:34:55;;;;;;;8.90;4.47;;;29.20;81.40;;;28.65;40.05;101137.66;5004156;28;20186;-72
2021/06/28 09:37:26;;;;;;;9.85;4.15;;;29.20;81.30;;;28.70;39.83;101138.03;5010933;28;20218;-72
2021/06/28 09:39:55;;;;;;;10.65;4.68;;;29.30;80.70;;;28.79;39.67;101139.72;4979544;28;20205;-72
2021/06/28 09:42:25;;;;;;;12.82;4.85;;;29.30;80.80;;;28.78;40.05;101136.19;4993188;28;20198;-72
2021/06/28 09:44:57;;;;;;;11.52;6.03;;;29.30;81.20;;;28.82;40.47;101134.84;4985872;28;20206;-73
2021/06/28 09:47:26;;;;;;;12.10;5.13;;;29.30;81.50;;;28.91;40.51;101131.16;4990974;28;20203;-72
2021/06/28 09:50:10;;;;;;;12.70;6.25;;;29.40;81.70;;;28.98;40.24;101131.34;4994144;28;20218;-73
2021/06/28 09:52:42;;;;;;;12.00;5.30;;;29.50;81.20;;;29.03;40.27;101134.38;4992228;28;20201;-72
2021/06/28 09:55:18;;;;;;;10.85;5.03;;;29.60;81.30;;;29.09;40.34;101134.59;4999899;28;20195;-71
2021/06/28 09:58:09;;;;;;;12.07;5.15;;;29.70;80.50;;;29.13;40.10;101138.66;4988748;28;20214;-72
2021/06/28 10:00:39;;;;;;;11.02;4.63;;;29.70;80.00;;;29.16;39.95;101130.22;4991511;28;20206;-71
2021/06/28 10:03:23;;;;;;;18.35;4.97;;;29.80;80.10;;;29.22;39.61;101137.63;4993680;28;20244;-72
2021/06/28 10:06:10;;;;;;;10.05;4.95;;;29.90;79.60;;;29.27;39.50;101132.59;4997740;28;20206;-71
2021/06/28 10:09:05;;;;;;;11.02;4.65;;;29.90;79.50;;;29.33;39.27;101129.25;4991873;28;20225;-72
2021/06/28 10:11:33;;;;;;;11.07;3.97;;;30.00;78.10;;;29.34;39.05;101117.41;4992415;28;20209;-71
2021/06/28 10:14:03;;;;;;;84.57;11.20;;;30.00;78.90;;;29.37;39.22;101127.88;4983955;28;20202;-71